createdAt,value
2023-04-18T00:01:27.459Z,99610.20
2023-04-18T00:03:54.055Z,99604.00
2023-04-18T00:06:22.110Z,99607.40
2023-04-18T00:08:48.595Z,99606.40
2023-04-18T00:11:15.031Z,99605.00
2023-04-18T00:13:41.606Z,99608.20
2023-04-18T00:16:08.699Z,99605.80
2023-04-18T00:18:36.946Z,99603.60
2023-04-18T00:21:04.465Z,99610.40
2023-04-18T00:23:31.308Z,99605.00
2023-04-18T00:25:57.692Z,99603.80
2023-04-18T00:28:24.254Z,99610.20
2023-04-18T00:30:50.921Z,99611.20
2023-04-18T00:33:17.917Z,99611.20
2023-04-18T00:35:44.753Z,99616.00
2023-04-18T00:38:11.228Z,99619.80
2023-04-18T00:40:38.532Z,99608.20
2023-04-18T00:43:07.905Z,99609.60
2023-04-18T00:45:34.778Z,99609.20
2023-04-18T00:48:02.077Z,99607.00
2023-04-18T00:50:28.807Z,99607.00
2023-04-18T00:52:56.161Z,99609.60
2023-04-18T00:55:24.109Z,99606.60
2023-04-18T00:57:51.813Z,99603.80
2023-04-18T01:00:18.446Z,99602.00
2023-04-18T01:02:45.040Z,99603.60
2023-04-18T01:05:11.981Z,99601.60
2023-04-18T01:07:41.552Z,99599.00
2023-04-18T01:10:10.475Z,99602.00
2023-04-18T01:12:37.645Z,99601.80
2023-04-18T01:15:05.688Z,99606.00
2023-04-18T01:17:34.545Z,99605.60
2023-04-18T01:20:02.042Z,99599.60
2023-04-18T01:22:31.810Z,99599.80
2023-04-18T01:24:58.596Z,99600.00
2023-04-18T01:27:24.999Z,99598.20
2023-04-18T01:29:51.554Z,99596.00
2023-04-18T01:32:20.153Z,99596.00
2023-04-18T01:34:46.796Z,99598.60
2023-04-18T01:37:13.331Z,99600.00
2023-04-18T01:39:39.828Z,99598.00
2023-04-18T01:42:06.300Z,99600.20
2023-04-18T01:44:32.689Z,99604.40
2023-04-18T01:46:59.236Z,99602.40
2023-04-18T01:49:25.831Z,99604.00
2023-04-18T01:51:52.204Z,99603.40
2023-04-18T01:54:18.876Z,99609.20
2023-04-18T01:56:45.329Z,99609.00
2023-04-18T01:59:11.750Z,99605.60
2023-04-18T02:01:38.191Z,99602.20
2023-04-18T02:04:04.582Z,99603.20
2023-04-18T02:06:31.270Z,99600.20
2023-04-18T02:08:57.703Z,99602.80
2023-04-18T02:11:27.637Z,99602.20
2023-04-18T02:13:54.065Z,99600.00
2023-04-18T02:16:20.662Z,99599.80
2023-04-18T02:18:47.263Z,99606.40
2023-04-18T02:21:13.653Z,99607.80
2023-04-18T02:23:40.191Z,99607.60
2023-04-18T02:26:06.647Z,99604.40
2023-04-18T02:28:33.135Z,99608.00
2023-04-18T02:31:00.459Z,99610.20
2023-04-18T02:33:26.943Z,99605.00
2023-04-18T02:35:53.368Z,99604.20
2023-04-18T02:38:19.817Z,99604.40
2023-04-18T02:40:46.309Z,99605.60
2023-04-18T02:43:12.734Z,99599.20
2023-04-18T02:45:39.438Z,99602.60
2023-04-18T02:48:06.046Z,99602.00
2023-04-18T02:50:32.614Z,99601.00
2023-04-18T02:52:58.986Z,99600.80
2023-04-18T02:55:26.892Z,99607.40
2023-04-18T02:57:53.384Z,99606.40
2023-04-18T03:00:19.993Z,99606.20
2023-04-18T03:02:46.542Z,99609.40
2023-04-18T03:05:13.477Z,99608.80
2023-04-18T03:07:40.130Z,99609.60
2023-04-18T03:10:07.098Z,99611.00
2023-04-18T03:12:33.623Z,99614.60
2023-04-18T03:15:00.070Z,99613.40
2023-04-18T03:17:26.580Z,99608.40
2023-04-18T03:19:53.065Z,99608.20
2023-04-18T03:22:20.109Z,99603.00
2023-04-18T03:24:46.534Z,99609.40
2023-04-18T03:27:13.408Z,99609.20
2023-04-18T03:29:39.903Z,99609.00
2023-04-18T03:32:06.409Z,99606.60
2023-04-18T03:34:32.958Z,99610.00
2023-04-18T03:36:59.509Z,99613.20
2023-04-18T03:39:25.946Z,99608.20
2023-04-18T03:41:52.555Z,99605.40
2023-04-18T03:44:19.157Z,99607.80
2023-04-18T03:46:45.792Z,99605.80
2023-04-18T03:49:12.421Z,99611.20
2023-04-18T03:51:48.000Z,99604.00
2023-04-18T03:54:16.344Z,99603.20
2023-04-18T03:56:43.862Z,99604.40
2023-04-18T03:59:11.314Z,99605.00
2023-04-18T04:01:38.213Z,99607.60
2023-04-18T04:04:05.359Z,99605.60
2023-04-18T04:06:32.174Z,99609.20
2023-04-18T04:08:58.615Z,99606.60
2023-04-18T04:11:25.069Z,99608.40
2023-04-18T04:13:51.624Z,99612.60
2023-04-18T04:16:18.236Z,99618.80
2023-04-18T04:18:44.838Z,99620.80
2023-04-18T04:21:11.321Z,99630.80
2023-04-18T04:23:37.981Z,99627.20
2023-04-18T04:26:04.671Z,99633.20
2023-04-18T04:28:32.002Z,99637.60
2023-04-18T04:30:59.295Z,99637.40
2023-04-18T04:33:28.404Z,99642.40
2023-04-18T04:35:56.333Z,99644.40
2023-04-18T04:38:25.280Z,99643.40
2023-04-18T04:40:52.824Z,99640.80
2023-04-18T04:43:20.673Z,99642.80
2023-04-18T04:45:52.623Z,99642.00
2023-04-18T04:48:20.322Z,99649.20
2023-04-18T04:50:56.468Z,99650.60
2023-04-18T04:53:25.611Z,99651.20
2023-04-18T04:55:52.406Z,99653.00
2023-04-18T04:58:20.040Z,99655.80
2023-04-18T05:00:46.592Z,99653.60
2023-04-18T05:03:13.069Z,99658.80
2023-04-18T05:05:39.704Z,99656.20
2023-04-18T05:08:06.489Z,99661.60
2023-04-18T05:10:33.198Z,99668.00
2023-04-18T05:12:59.616Z,99665.20
2023-04-18T05:15:26.010Z,99667.80
2023-04-18T05:17:52.496Z,99666.80
2023-04-18T05:20:18.908Z,99664.80
2023-04-18T05:22:45.458Z,99666.00
2023-04-18T05:25:12.459Z,99662.40
2023-04-18T05:27:39.434Z,99672.20
2023-04-18T05:30:10.754Z,99669.20
2023-04-18T05:32:38.985Z,99668.40
2023-04-18T05:35:07.390Z,99666.20
2023-04-18T05:37:34.448Z,99669.00
2023-04-18T05:40:01.286Z,99670.80
2023-04-18T05:42:27.745Z,99667.20
2023-04-18T05:44:54.197Z,99669.40
2023-04-18T05:47:21.098Z,99668.20
2023-04-18T05:49:47.665Z,99669.00
2023-04-18T05:52:14.169Z,99667.20
2023-04-18T05:54:41.170Z,99669.20
2023-04-18T05:57:07.676Z,99671.00
2023-04-18T05:59:34.285Z,99667.00
2023-04-18T06:02:00.812Z,99671.00
2023-04-18T06:04:27.521Z,99670.40
2023-04-18T06:06:54.374Z,99674.20
2023-04-18T06:09:21.008Z,99671.80
2023-04-18T06:11:47.458Z,99675.40
2023-04-18T06:14:14.027Z,99677.40
2023-04-18T06:16:40.932Z,99676.60
2023-04-18T06:19:07.497Z,99676.20
2023-04-18T06:21:33.868Z,99672.40
2023-04-18T06:24:01.557Z,99675.80
2023-04-18T06:26:28.256Z,99679.00
2023-04-18T06:28:54.691Z,99682.20
2023-04-18T06:31:21.335Z,99683.60
2023-04-18T06:33:47.808Z,99680.20
2023-04-18T06:36:14.350Z,99685.00
2023-04-18T06:38:40.803Z,99684.00
2023-04-18T06:41:07.224Z,99683.80
2023-04-18T06:43:35.769Z,99681.20
2023-04-18T06:46:06.054Z,99684.60
2023-04-18T06:48:32.888Z,99684.20
2023-04-18T06:50:59.308Z,99681.80
2023-04-18T06:53:25.942Z,99685.00
2023-04-18T06:55:52.496Z,99688.00
2023-04-18T06:58:18.944Z,99675.60
2023-04-18T07:00:48.806Z,99682.40
2023-04-18T07:03:15.460Z,99683.20
2023-04-18T07:05:42.087Z,99688.80
2023-04-18T07:08:08.653Z,99686.20
2023-04-18T07:10:35.169Z,99681.40
2023-04-18T07:13:01.753Z,99690.80
2023-04-18T07:15:28.520Z,99693.60
2023-04-18T07:17:55.151Z,99698.80
2023-04-18T07:20:21.742Z,99699.60
2023-04-18T07:22:48.726Z,99700.00
2023-04-18T07:25:15.208Z,99700.80
2023-04-18T07:27:41.707Z,99702.40
2023-04-18T07:30:09.222Z,99696.60
2023-04-18T07:32:35.742Z,99699.00
2023-04-18T07:35:03.461Z,99700.20
2023-04-18T07:37:29.921Z,99694.60
2023-04-18T07:39:56.452Z,99697.60
2023-04-18T07:42:22.888Z,99697.20
2023-04-18T07:44:49.683Z,99698.00
2023-04-18T07:47:16.362Z,99697.20
2023-04-18T07:49:43.014Z,99695.00
2023-04-18T07:52:09.506Z,99697.40
2023-04-18T07:54:35.959Z,99701.40
2023-04-18T07:57:02.509Z,99699.40
2023-04-18T07:59:29.584Z,99696.60
2023-04-18T08:01:56.101Z,99692.40
2023-04-18T08:04:23.243Z,99695.20
2023-04-18T08:06:49.822Z,99697.00
2023-04-18T08:09:16.472Z,99699.20
2023-04-18T08:11:43.094Z,99703.80
2023-04-18T08:14:09.598Z,99704.00
2023-04-18T08:16:37.469Z,99706.20
2023-04-18T08:21:44.757Z,99708.80
2023-04-18T08:24:11.152Z,99708.00
2023-04-18T08:26:37.579Z,99709.60
2023-04-18T08:29:04.115Z,99705.60
2023-04-18T08:31:31.681Z,99708.00
2023-04-18T08:33:58.232Z,99713.40
2023-04-18T08:36:25.064Z,99712.80
2023-04-18T08:38:51.637Z,99711.40
2023-04-18T08:41:24.601Z,99710.80
2023-04-18T08:43:51.220Z,99710.20
2023-04-18T08:46:18.970Z,99711.00
2023-04-18T08:48:50.081Z,99713.20
2023-04-18T08:51:16.482Z,99711.60
2023-04-18T08:53:45.078Z,99710.20
2023-04-18T08:56:14.748Z,99711.00
2023-04-18T08:58:41.295Z,99708.40
2023-04-18T09:01:07.859Z,99712.40
2023-04-18T09:03:42.618Z,99708.60
2023-04-18T09:06:18.878Z,99704.20
2023-04-18T09:08:58.674Z,99704.00
2023-04-18T09:11:28.726Z,99704.60
2023-04-18T09:13:59.012Z,99704.00
2023-04-18T09:16:28.105Z,99703.00
2023-04-18T09:19:18.155Z,99703.40
2023-04-18T09:21:48.931Z,99698.60
2023-04-18T09:24:29.009Z,99694.80
2023-04-18T09:26:58.552Z,99698.80
2023-04-18T09:29:57.323Z,99700.00
2023-04-18T09:32:28.915Z,99696.80
2023-04-18T09:35:04.569Z,99698.40
2023-04-18T09:37:31.596Z,99694.80
2023-04-18T09:39:58.011Z,99695.40
2023-04-18T09:42:28.684Z,99701.80
2023-04-18T09:45:07.038Z,99698.20
2023-04-18T09:47:36.537Z,99703.00
2023-04-18T09:50:08.118Z,99706.20
2023-04-18T09:52:38.152Z,99706.60
2023-04-18T09:55:08.745Z,99704.60
2023-04-18T09:57:40.641Z,99706.40
2023-04-18T10:00:14.182Z,99707.60
2023-04-18T10:02:50.429Z,99713.60
2023-04-18T10:05:21.095Z,99706.20
2023-04-18T10:07:50.022Z,99703.80
2023-04-18T10:10:17.976Z,99703.80
2023-04-18T10:12:48.091Z,99701.20
2023-04-18T10:15:16.752Z,99697.40
2023-04-18T10:18:13.995Z,99700.20
2023-04-18T10:20:42.537Z,99694.80
2023-04-18T10:23:34.810Z,99695.60
2023-04-18T10:26:03.491Z,99694.60
2023-04-18T10:28:54.685Z,99694.60
2023-04-18T10:31:24.209Z,99693.00
2023-04-18T10:36:28.442Z,99698.00
2023-04-18T10:39:04.299Z,99692.20
2023-04-18T10:41:33.328Z,99694.80
2023-04-18T10:44:09.527Z,99691.40
2023-04-18T10:46:43.992Z,99695.40
2023-04-18T10:49:25.207Z,99688.80
2023-04-18T10:51:58.585Z,99692.60
2023-04-18T10:54:47.908Z,99695.40
2023-04-18T10:57:15.239Z,99691.20
2023-04-18T10:59:51.547Z,99688.80
2023-04-18T11:02:23.433Z,99689.20
2023-04-18T11:04:59.421Z,99687.00
2023-04-18T11:07:48.636Z,99692.40
2023-04-18T11:10:25.499Z,99691.60
2023-04-18T11:12:53.411Z,99691.60
2023-04-18T11:15:25.629Z,99690.20
2023-04-18T11:18:05.132Z,99691.60
2023-04-18T11:20:51.958Z,99690.60
2023-04-18T11:23:25.516Z,99689.00
2023-04-18T11:25:56.390Z,99688.00
2023-04-18T11:28:24.982Z,99681.00
2023-04-18T11:30:51.447Z,99684.40
2023-04-18T11:33:18.064Z,99679.00
2023-04-18T11:35:46.430Z,99675.60
2023-04-18T11:38:15.309Z,99668.60
2023-04-18T11:40:49.134Z,99667.40
2023-04-18T11:43:21.948Z,99663.80
2023-04-18T11:45:57.650Z,99659.80
2023-04-18T11:48:34.812Z,99660.20
2023-04-18T11:51:01.293Z,99661.00
2023-04-18T11:53:36.302Z,99658.60
2023-04-18T11:56:04.686Z,99654.00
2023-04-18T11:58:33.210Z,99653.60
2023-04-18T12:01:25.094Z,99649.80
2023-04-18T12:04:08.153Z,99649.60
2023-04-18T12:06:53.338Z,99646.80
2023-04-18T12:09:24.535Z,99645.00
2023-04-18T12:12:02.709Z,99642.60
2023-04-18T12:14:30.816Z,99645.00
2023-04-18T12:16:57.272Z,99639.40
2023-04-18T12:19:28.150Z,99639.80
2023-04-18T12:22:06.479Z,99637.60
2023-04-18T12:24:34.032Z,99636.20
2023-04-18T12:27:00.563Z,99631.20
2023-04-18T12:29:28.928Z,99633.40
2023-04-18T12:31:55.598Z,99630.40
2023-04-18T12:34:22.057Z,99625.40
2023-04-18T12:36:48.572Z,99629.20
2023-04-18T12:39:15.628Z,99624.20
2023-04-18T12:41:42.080Z,99623.00
2023-04-18T12:44:09.252Z,99620.40
2023-04-18T12:46:35.904Z,99615.40
2023-04-18T12:49:02.396Z,99614.40
2023-04-18T12:51:29.107Z,99610.40
2023-04-18T12:53:56.451Z,99610.40
2023-04-18T12:56:22.993Z,99615.00
2023-04-18T12:58:49.481Z,99614.00
2023-04-18T13:01:17.008Z,99611.60
2023-04-18T13:03:43.643Z,99613.40
2023-04-18T13:06:10.698Z,99611.20
2023-04-18T13:08:38.318Z,99614.00
2023-04-18T13:11:04.822Z,99611.20
2023-04-18T13:13:32.196Z,99609.40
2023-04-18T13:15:59.370Z,99610.00
2023-04-18T13:18:25.993Z,99611.20
2023-04-18T13:20:55.214Z,99608.40
2023-04-18T13:23:21.604Z,99609.20
2023-04-18T13:25:47.987Z,99602.00
2023-04-18T13:28:14.509Z,99601.60
2023-04-18T13:30:40.916Z,99598.00
2023-04-18T13:33:07.462Z,99607.20
2023-04-18T13:35:34.335Z,99596.00
2023-04-18T13:38:00.770Z,99593.80
2023-04-18T13:40:27.287Z,99588.80
2023-04-18T13:42:53.756Z,99584.20
2023-04-18T13:45:20.657Z,99588.40
2023-04-18T13:47:47.375Z,99578.80
2023-04-18T13:50:14.144Z,99580.40
2023-04-18T13:52:40.590Z,99580.60
2023-04-18T13:55:08.150Z,99575.40
2023-04-18T13:57:35.989Z,99582.20
2023-04-18T14:00:02.508Z,99586.40
2023-04-18T14:02:29.126Z,99581.00
2023-04-18T14:04:56.077Z,99583.40
2023-04-18T14:07:22.577Z,99580.20
2023-04-18T14:09:49.136Z,99584.60
2023-04-18T14:12:15.648Z,99585.80
2023-04-18T14:14:42.169Z,99586.00
2023-04-18T14:17:09.005Z,99584.20
2023-04-18T14:19:35.440Z,99586.60
2023-04-18T14:22:01.801Z,99581.40
2023-04-18T14:24:28.350Z,99582.80
2023-04-18T14:26:54.853Z,99584.40
2023-04-18T14:29:21.320Z,99586.00
2023-04-18T14:31:48.341Z,99584.60
2023-04-18T14:34:14.923Z,99582.00
2023-04-18T14:36:41.496Z,99589.20
2023-04-18T14:39:08.264Z,99589.60
2023-04-18T14:41:34.763Z,99584.60
2023-04-18T14:44:01.240Z,99589.60
2023-04-18T14:46:29.508Z,99596.00
2023-04-18T14:48:57.139Z,99591.20
2023-04-18T14:51:24.015Z,99591.60
2023-04-18T14:53:50.483Z,99591.20
2023-04-18T14:56:21.030Z,99586.60
2023-04-18T14:58:47.760Z,99587.40
2023-04-18T15:01:14.436Z,99586.40
2023-04-18T15:03:41.121Z,99587.60
2023-04-18T15:06:07.924Z,99585.20
2023-04-18T15:08:34.416Z,99584.80
2023-04-18T15:11:01.574Z,99587.40
2023-04-18T15:13:28.339Z,99576.40
2023-04-18T15:15:57.052Z,99577.40
2023-04-18T15:18:23.596Z,99574.20
2023-04-18T15:20:50.783Z,99574.20
2023-04-18T15:23:17.517Z,99570.20
2023-04-18T15:25:45.590Z,99569.20
2023-04-18T15:28:14.319Z,99576.20
2023-04-18T15:30:41.008Z,99569.40
2023-04-18T15:33:08.253Z,99571.60
2023-04-18T15:35:35.691Z,99571.00
2023-04-18T15:38:02.212Z,99566.80
2023-04-18T15:40:28.733Z,99571.20
2023-04-18T15:42:56.062Z,99571.40
2023-04-18T15:45:22.536Z,99571.60
2023-04-18T15:47:49.107Z,99575.20
2023-04-18T15:50:16.322Z,99573.00
2023-04-18T15:52:43.986Z,99573.60
2023-04-18T15:55:13.268Z,99566.40
2023-04-18T15:57:41.877Z,99570.60
2023-04-18T16:00:18.498Z,99569.00
2023-04-18T16:02:46.013Z,99568.60
2023-04-18T16:05:13.640Z,99569.00
2023-04-18T16:07:42.156Z,99564.60
2023-04-18T16:10:10.335Z,99569.20
2023-04-18T16:12:38.421Z,99563.00
2023-04-18T16:15:09.738Z,99564.20
2023-04-18T16:17:37.702Z,99557.00
2023-04-18T16:20:06.254Z,99560.40
2023-04-18T16:22:32.926Z,99558.80
2023-04-18T16:24:59.367Z,99558.80
2023-04-18T16:27:26.093Z,99555.60
2023-04-18T16:29:53.749Z,99553.80
2023-04-18T16:32:21.379Z,99554.40
2023-04-18T16:34:48.461Z,99548.20
2023-04-18T16:37:14.991Z,99550.40
2023-04-18T16:39:41.517Z,99550.80
2023-04-18T16:42:07.977Z,99548.00
2023-04-18T16:44:34.439Z,99551.40
2023-04-18T16:47:01.521Z,99550.60
2023-04-18T16:49:28.045Z,99549.40
2023-04-18T16:51:54.414Z,99548.00
2023-04-18T16:54:20.862Z,99549.20
2023-04-18T16:56:47.397Z,99551.80
2023-04-18T16:59:13.790Z,99546.40
2023-04-18T17:01:40.785Z,99550.80
2023-04-18T17:04:07.377Z,99549.60
2023-04-18T17:06:33.970Z,99550.60
2023-04-18T17:09:00.791Z,99549.00
2023-04-18T17:11:27.169Z,99550.60
2023-04-18T17:13:53.655Z,99552.00
2023-04-18T17:16:20.632Z,99554.60
2023-04-18T17:18:47.110Z,99556.20
2023-04-18T17:21:13.617Z,99554.80
2023-04-18T17:23:42.240Z,99551.00
2023-04-18T17:26:09.869Z,99558.20
2023-04-18T17:28:36.523Z,99553.20
2023-04-18T17:31:03.708Z,99551.00
2023-04-18T17:33:31.004Z,99553.80
2023-04-18T17:35:58.016Z,99553.20
2023-04-18T17:38:24.612Z,99551.80
2023-04-18T17:41:01.883Z,99548.00
2023-04-18T17:43:28.430Z,99554.80
2023-04-18T17:45:56.806Z,99544.20
2023-04-18T17:48:23.278Z,99548.20
2023-04-18T17:50:49.680Z,99547.80
2023-04-18T17:53:17.463Z,99546.80
2023-04-18T17:55:45.106Z,99547.80
2023-04-18T17:58:11.564Z,99551.20
2023-04-18T18:00:38.013Z,99552.60
2023-04-18T18:03:05.444Z,99554.80
2023-04-18T18:05:32.083Z,99549.80
2023-04-18T18:08:00.985Z,99556.20
2023-04-18T18:10:28.003Z,99550.40
2023-04-18T18:12:54.391Z,99550.40
2023-04-18T18:15:21.012Z,99546.40
2023-04-18T18:17:54.861Z,99546.20
2023-04-18T18:20:21.762Z,99546.80
2023-04-18T18:22:48.296Z,99543.40
2023-04-18T18:25:15.204Z,99545.00
2023-04-18T18:27:41.909Z,99546.40
2023-04-18T18:30:08.865Z,99542.20
2023-04-18T18:32:35.453Z,99543.80
2023-04-18T18:35:02.631Z,99541.00
2023-04-18T18:37:29.018Z,99543.80
2023-04-18T18:39:56.374Z,99544.60
2023-04-18T18:42:26.151Z,99541.60
2023-04-18T18:44:52.587Z,99540.60
2023-04-18T18:47:19.254Z,99538.20
2023-04-18T18:49:45.848Z,99534.60
2023-04-18T18:52:12.290Z,99535.60
2023-04-18T18:54:38.741Z,99534.60
2023-04-18T18:57:05.188Z,99536.20
2023-04-18T18:59:31.647Z,99532.80
2023-04-18T19:01:58.090Z,99534.20
2023-04-18T19:04:25.001Z,99529.00
2023-04-18T19:06:51.579Z,99531.40
2023-04-18T19:09:17.963Z,99528.00
2023-04-18T19:11:44.476Z,99523.60
2023-04-18T19:14:11.104Z,99520.20
2023-04-18T19:16:37.696Z,99522.60
2023-04-18T19:19:04.296Z,99520.40
2023-04-18T19:21:31.356Z,99523.20
2023-04-18T19:23:57.757Z,99516.80
2023-04-18T19:26:24.289Z,99513.60
2023-04-18T19:28:50.766Z,99512.80
2023-04-18T19:31:17.389Z,99515.20
2023-04-18T19:33:43.846Z,99510.60
2023-04-18T19:36:10.268Z,99507.80
2023-04-18T19:38:36.781Z,99506.00
2023-04-18T19:41:03.266Z,99503.20
2023-04-18T19:43:29.648Z,99498.80
2023-04-18T19:45:56.209Z,99495.80
2023-04-18T19:48:22.660Z,99491.80
2023-04-18T19:50:49.637Z,99492.60
2023-04-18T19:53:18.718Z,99491.80
2023-04-18T19:55:45.479Z,99489.40
2023-04-18T19:58:11.972Z,99488.00
2023-04-18T20:00:39.367Z,99493.00
2023-04-18T20:03:05.926Z,99488.20
2023-04-18T20:05:32.582Z,99488.40
2023-04-18T20:07:58.978Z,99487.40
2023-04-18T20:10:25.660Z,99484.40
2023-04-18T20:12:52.033Z,99482.60
2023-04-18T20:15:18.420Z,99488.20
2023-04-18T20:17:45.015Z,99487.00
2023-04-18T20:20:12.222Z,99483.60
2023-04-18T20:22:40.265Z,99487.80
2023-04-18T20:25:07.204Z,99489.40
2023-04-18T20:27:33.642Z,99480.00
2023-04-18T20:30:00.180Z,99480.60
2023-04-18T20:32:26.866Z,99476.20
2023-04-18T20:34:53.501Z,99478.00
2023-04-18T20:37:20.241Z,99480.80
2023-04-18T20:39:47.410Z,99482.00
2023-04-18T20:42:14.508Z,99486.00
2023-04-18T20:44:43.249Z,99475.80
2023-04-18T20:47:09.779Z,99467.60
2023-04-18T20:49:36.302Z,99470.40
2023-04-18T20:52:02.873Z,99470.40
2023-04-18T20:54:29.303Z,99472.80
2023-04-18T20:56:56.122Z,99470.40
2023-04-18T20:59:22.522Z,99467.60
2023-04-18T21:01:49.010Z,99467.80
2023-04-18T21:04:16.045Z,99464.00
2023-04-18T21:06:42.870Z,99459.00
2023-04-18T21:09:09.342Z,99456.20
2023-04-18T21:11:35.842Z,99457.60
2023-04-18T21:14:03.831Z,99452.40
2023-04-18T21:16:30.488Z,99453.80
2023-04-18T21:18:56.946Z,99455.80
2023-04-18T21:21:24.674Z,99453.00
2023-04-18T21:23:51.173Z,99449.00
2023-04-18T21:26:17.612Z,99449.40
2023-04-18T21:29:01.833Z,99449.00
2023-04-18T21:31:31.561Z,99449.60
2023-04-18T21:34:00.872Z,99450.40
2023-04-18T21:36:28.938Z,99452.40
2023-04-18T21:38:58.209Z,99443.80
2023-04-18T21:41:25.831Z,99440.60
2023-04-18T21:43:53.076Z,99442.20
2023-04-18T21:46:19.937Z,99442.80
2023-04-18T21:48:47.313Z,99441.00
2023-04-18T21:51:16.404Z,99435.80
2023-04-18T21:53:43.250Z,99434.00
2023-04-18T21:56:09.774Z,99434.40
2023-04-18T21:58:36.231Z,99434.00
2023-04-18T22:01:03.249Z,99432.60
2023-04-18T22:03:31.584Z,99427.40
2023-04-18T22:05:58.777Z,99431.80
2023-04-18T22:08:25.779Z,99427.80
2023-04-18T22:10:58.813Z,99426.20
2023-04-18T22:13:32.685Z,99422.00
2023-04-18T22:16:03.995Z,99417.20
2023-04-18T22:18:33.900Z,99413.20
2023-04-18T22:21:03.224Z,99415.20
2023-04-18T22:23:30.925Z,99414.60
2023-04-18T22:25:57.868Z,99411.40
2023-04-18T22:28:24.460Z,99407.40
2023-04-18T22:30:51.412Z,99408.00
2023-04-18T22:33:18.198Z,99404.20
2023-04-18T22:35:47.706Z,99400.40
2023-04-18T22:38:14.342Z,99397.40
2023-04-18T22:40:40.779Z,99394.20
2023-04-18T22:43:07.246Z,99396.20
2023-04-18T22:45:34.617Z,99396.60
2023-04-18T22:48:01.341Z,99393.00
2023-04-18T22:50:27.759Z,99384.00
2023-04-18T22:52:54.263Z,99380.40
2023-04-18T22:55:20.700Z,99373.80
2023-04-18T22:57:47.146Z,99375.20
2023-04-18T23:00:14.653Z,99376.60
2023-04-18T23:02:41.658Z,99374.80
2023-04-18T23:05:10.687Z,99366.80
2023-04-18T23:07:37.104Z,99366.80
2023-04-18T23:10:06.635Z,99357.00
2023-04-18T23:12:33.448Z,99358.20
2023-04-18T23:14:59.892Z,99350.60
2023-04-18T23:17:26.292Z,99350.80
2023-04-18T23:19:52.767Z,99343.60
2023-04-18T23:22:19.188Z,99348.80
2023-04-18T23:24:45.740Z,99341.00
2023-04-18T23:27:12.157Z,99337.00
2023-04-18T23:29:39.175Z,99336.20
2023-04-18T23:32:06.583Z,99328.80
2023-04-18T23:34:32.973Z,99327.20
2023-04-18T23:37:00.579Z,99327.20
2023-04-18T23:39:26.989Z,99321.80
2023-04-18T23:41:53.605Z,99319.80
2023-04-18T23:44:20.154Z,99316.20
2023-04-18T23:46:47.730Z,99314.40
2023-04-18T23:49:15.172Z,99316.00
2023-04-18T23:51:42.146Z,99309.60
2023-04-18T23:54:08.606Z,99311.00
2023-04-18T23:56:35.207Z,99308.20
2023-04-18T23:59:01.632Z,99309.80
